sensor_id;sensor_type;location;lat;lon;timestamp;pressure;altitude;pressure_sealevel;temperature;humidity
55289;BME280;41154;45.394;5.734;2023-03-11T00:00:58;96225.72;;;5.20;100.00
55289;BME280;41154;45.394;5.734;2023-03-11T00:03:24;96219.38;;;5.09;100.00
55289;BME280;41154;45.394;5.734;2023-03-11T00:05:52;96222.81;;;5.21;100.00
55289;BME280;41154;45.394;5.734;2023-03-11T00:08:21;96223.69;;;5.39;100.00
55289;BME280;41154;45.394;5.734;2023-03-11T00:10:52;96236.34;;;5.32;100.00
55289;BME280;41154;45.394;5.734;2023-03-11T00:13:20;96211.09;;;5.34;100.00
55289;BME280;41154;45.394;5.734;2023-03-11T00:15:48;96183.91;;;5.44;100.00
55289;BME280;41154;45.394;5.734;2023-03-11T00:18:15;96181.63;;;5.36;100.00
55289;BME280;41154;45.394;5.734;2023-03-11T00:20:42;96177.69;;;5.38;100.00
55289;BME280;41154;45.394;5.734;2023-03-11T00:23:12;96158.84;;;5.40;100.00
55289;BME280;41154;45.394;5.734;2023-03-11T00:25:38;96153.66;;;5.33;100.00
55289;BME280;41154;45.394;5.734;2023-03-11T00:28:04;96158.59;;;5.42;100.00
55289;BME280;41154;45.394;5.734;2023-03-11T00:30:32;96167.06;;;5.67;100.00
55289;BME280;41154;45.394;5.734;2023-03-11T00:32:58;96156.28;;;5.62;100.00
55289;BME280;41154;45.394;5.734;2023-03-11T00:35:27;96151.09;;;5.38;100.00
55289;BME280;41154;45.394;5.734;2023-03-11T00:37:57;96168.47;;;5.58;100.00
55289;BME280;41154;45.394;5.734;2023-03-11T00:40:28;96167.25;;;5.49;100.00
55289;BME280;41154;45.394;5.734;2023-03-11T00:42:55;96156.22;;;5.28;100.00
55289;BME280;41154;45.394;5.734;2023-03-11T00:45:24;96172.75;;;5.30;100.00
55289;BME280;41154;45.394;5.734;2023-03-11T00:47:52;96170.38;;;5.46;100.00
55289;BME280;41154;45.394;5.734;2023-03-11T00:50:22;96161.47;;;5.52;100.00
55289;BME280;41154;45.394;5.734;2023-03-11T00:52:49;96152.81;;;5.45;100.00
55289;BME280;41154;45.394;5.734;2023-03-11T00:55:19;96151.66;;;5.69;100.00
55289;BME280;41154;45.394;5.734;2023-03-11T00:57:45;96166.03;;;5.28;100.00
55289;BME280;41154;45.394;5.734;2023-03-11T01:00:17;96143.50;;;5.30;100.00
55289;BME280;41154;45.394;5.734;2023-03-11T01:02:43;96128.50;;;5.70;100.00
55289;BME280;41154;45.394;5.734;2023-03-11T01:05:09;96139.59;;;5.50;100.00
55289;BME280;41154;45.394;5.734;2023-03-11T01:07:36;96128.03;;;5.90;100.00
55289;BME280;41154;45.394;5.734;2023-03-11T01:10:03;96143.16;;;5.55;100.00
55289;BME280;41154;45.394;5.734;2023-03-11T01:12:29;96137.34;;;5.30;100.00
55289;BME280;41154;45.394;5.734;2023-03-11T01:14:57;96127.69;;;5.24;100.00
55289;BME280;41154;45.394;5.734;2023-03-11T01:17:23;96117.19;;;5.46;100.00
55289;BME280;41154;45.394;5.734;2023-03-11T01:19:49;96117.34;;;5.56;100.00
55289;BME280;41154;45.394;5.734;2023-03-11T01:22:15;96118.03;;;5.34;100.00
55289;BME280;41154;45.394;5.734;2023-03-11T01:24:41;96114.56;;;5.34;100.00
55289;BME280;41154;45.394;5.734;2023-03-11T01:27:07;96138.50;;;5.05;100.00
55289;BME280;41154;45.394;5.734;2023-03-11T01:29:34;96111.00;;;5.28;100.00
55289;BME280;41154;45.394;5.734;2023-03-11T01:32:02;96111.88;;;5.46;100.00
55289;BME280;41154;45.394;5.734;2023-03-11T01:34:27;96130.00;;;5.49;100.00
55289;BME280;41154;45.394;5.734;2023-03-11T01:36:53;96105.84;;;5.21;100.00
55289;BME280;41154;45.394;5.734;2023-03-11T01:39:19;96099.16;;;5.19;100.00
55289;BME280;41154;45.394;5.734;2023-03-11T01:41:44;96099.72;;;5.21;100.00
55289;BME280;41154;45.394;5.734;2023-03-11T01:44:11;96086.88;;;5.47;100.00
55289;BME280;41154;45.394;5.734;2023-03-11T01:49:22;96082.03;;;5.44;100.00
55289;BME280;41154;45.394;5.734;2023-03-11T01:51:51;96077.50;;;5.27;100.00
55289;BME280;41154;45.394;5.734;2023-03-11T01:54:27;96054.06;;;5.41;100.00
55289;BME280;41154;45.394;5.734;2023-03-11T01:56:55;96040.31;;;5.61;100.00
55289;BME280;41154;45.394;5.734;2023-03-11T01:59:31;96075.84;;;5.38;100.00
55289;BME280;41154;45.394;5.734;2023-03-11T02:02:09;96054.97;;;5.81;100.00
55289;BME280;41154;45.394;5.734;2023-03-11T02:04:37;96048.59;;;5.82;100.00
55289;BME280;41154;45.394;5.734;2023-03-11T02:07:07;96052.16;;;5.53;100.00
55289;BME280;41154;45.394;5.734;2023-03-11T02:09:34;96034.16;;;5.78;100.00
55289;BME280;41154;45.394;5.734;2023-03-11T02:12:01;96020.63;;;5.45;100.00
55289;BME280;41154;45.394;5.734;2023-03-11T02:14:29;96011.91;;;5.33;100.00
55289;BME280;41154;45.394;5.734;2023-03-11T02:16:58;96017.56;;;5.36;100.00
55289;BME280;41154;45.394;5.734;2023-03-11T02:22:13;96032.56;;;5.43;100.00
55289;BME280;41154;45.394;5.734;2023-03-11T02:24:56;96015.88;;;5.47;100.00
55289;BME280;41154;45.394;5.734;2023-03-11T02:27:26;95991.53;;;5.72;100.00
55289;BME280;41154;45.394;5.734;2023-03-11T02:29:54;95987.59;;;5.41;100.00
55289;BME280;41154;45.394;5.734;2023-03-11T02:32:22;95978.63;;;5.64;100.00
55289;BME280;41154;45.394;5.734;2023-03-11T02:34:48;95994.25;;;5.44;100.00
55289;BME280;41154;45.394;5.734;2023-03-11T02:37:16;95973.63;;;5.34;100.00
55289;BME280;41154;45.394;5.734;2023-03-11T02:39:51;95968.84;;;5.70;100.00
55289;BME280;41154;45.394;5.734;2023-03-11T02:42:24;95973.69;;;5.56;100.00
55289;BME280;41154;45.394;5.734;2023-03-11T02:45:19;95950.88;;;5.77;100.00
55289;BME280;41154;45.394;5.734;2023-03-11T02:47:43;95965.97;;;5.54;100.00
55289;BME280;41154;45.394;5.734;2023-03-11T02:50:12;95944.44;;;5.56;100.00
55289;BME280;41154;45.394;5.734;2023-03-11T02:52:43;95961.97;;;5.52;100.00
55289;BME280;41154;45.394;5.734;2023-03-11T02:55:10;95962.25;;;5.72;100.00
55289;BME280;41154;45.394;5.734;2023-03-11T02:57:41;95942.94;;;5.82;100.00
55289;BME280;41154;45.394;5.734;2023-03-11T03:00:08;95959.19;;;5.64;100.00
55289;BME280;41154;45.394;5.734;2023-03-11T03:02:44;95955.66;;;5.58;100.00
55289;BME280;41154;45.394;5.734;2023-03-11T03:05:10;95949.94;;;6.05;100.00
55289;BME280;41154;45.394;5.734;2023-03-11T03:07:36;95949.41;;;5.86;100.00
55289;BME280;41154;45.394;5.734;2023-03-11T03:10:04;95946.97;;;5.63;100.00
55289;BME280;41154;45.394;5.734;2023-03-11T03:12:30;95947.09;;;5.73;100.00
55289;BME280;41154;45.394;5.734;2023-03-11T03:14:55;95959.53;;;5.67;100.00
55289;BME280;41154;45.394;5.734;2023-03-11T03:17:23;95976.69;;;5.76;100.00
55289;BME280;41154;45.394;5.734;2023-03-11T03:19:49;95965.56;;;5.63;100.00
55289;BME280;41154;45.394;5.734;2023-03-11T03:22:15;95962.31;;;5.78;100.00
55289;BME280;41154;45.394;5.734;2023-03-11T03:24:42;95955.19;;;5.61;100.00
55289;BME280;41154;45.394;5.734;2023-03-11T03:27:08;95946.78;;;5.52;100.00
55289;BME280;41154;45.394;5.734;2023-03-11T03:29:34;95932.69;;;5.69;100.00
55289;BME280;41154;45.394;5.734;2023-03-11T03:31:59;95923.75;;;5.58;100.00
55289;BME280;41154;45.394;5.734;2023-03-11T03:34:25;95918.09;;;5.54;100.00
55289;BME280;41154;45.394;5.734;2023-03-11T03:36:51;95918.75;;;5.45;100.00
55289;BME280;41154;45.394;5.734;2023-03-11T03:39:17;95906.44;;;5.38;100.00
55289;BME280;41154;45.394;5.734;2023-03-11T03:41:45;95899.97;;;5.51;100.00
55289;BME280;41154;45.394;5.734;2023-03-11T03:44:11;95905.75;;;5.65;100.00
55289;BME280;41154;45.394;5.734;2023-03-11T03:46:37;95909.88;;;5.56;100.00
55289;BME280;41154;45.394;5.734;2023-03-11T03:49:06;95898.72;;;5.59;100.00
55289;BME280;41154;45.394;5.734;2023-03-11T03:51:32;95898.88;;;6.08;100.00
55289;BME280;41154;45.394;5.734;2023-03-11T03:54:10;95902.34;;;5.70;100.00
55289;BME280;41154;45.394;5.734;2023-03-11T03:56:35;95927.66;;;5.72;100.00
55289;BME280;41154;45.394;5.734;2023-03-11T03:59:01;95932.44;;;6.09;100.00
55289;BME280;41154;45.394;5.734;2023-03-11T04:04:16;95961.13;;;5.68;100.00
55289;BME280;41154;45.394;5.734;2023-03-11T04:06:42;95920.72;;;5.71;100.00
55289;BME280;41154;45.394;5.734;2023-03-11T04:09:10;95890.69;;;5.54;100.00
55289;BME280;41154;45.394;5.734;2023-03-11T04:11:39;95881.19;;;5.58;100.00
55289;BME280;41154;45.394;5.734;2023-03-11T04:14:06;95875.69;;;5.87;100.00
55289;BME280;41154;45.394;5.734;2023-03-11T04:16:36;95858.91;;;5.86;100.00
55289;BME280;41154;45.394;5.734;2023-03-11T04:19:09;95853.28;;;5.61;100.00
55289;BME280;41154;45.394;5.734;2023-03-11T04:21:35;95871.38;;;5.42;100.00
55289;BME280;41154;45.394;5.734;2023-03-11T04:24:02;95870.47;;;5.53;100.00
55289;BME280;41154;45.394;5.734;2023-03-11T04:26:32;95882.53;;;5.61;100.00
55289;BME280;41154;45.394;5.734;2023-03-11T04:28:59;95896.72;;;5.88;100.00
55289;BME280;41154;45.394;5.734;2023-03-11T04:31:27;95900.41;;;5.65;100.00
55289;BME280;41154;45.394;5.734;2023-03-11T04:33:53;95887.19;;;5.70;100.00
55289;BME280;41154;45.394;5.734;2023-03-11T04:36:19;95886.63;;;5.68;100.00
55289;BME280;41154;45.394;5.734;2023-03-11T04:38:45;95895.50;;;5.74;100.00
55289;BME280;41154;45.394;5.734;2023-03-11T04:41:12;95902.78;;;5.84;100.00
55289;BME280;41154;45.394;5.734;2023-03-11T04:43:40;95912.06;;;5.81;100.00
55289;BME280;41154;45.394;5.734;2023-03-11T04:46:05;95903.19;;;5.92;100.00
55289;BME280;41154;45.394;5.734;2023-03-11T04:48:32;95895.94;;;5.88;100.00
55289;BME280;41154;45.394;5.734;2023-03-11T04:50:58;95887.03;;;5.99;100.00
55289;BME280;41154;45.394;5.734;2023-03-11T04:53:27;95889.25;;;6.07;100.00
55289;BME280;41154;45.394;5.734;2023-03-11T04:55:53;95879.31;;;5.98;100.00
55289;BME280;41154;45.394;5.734;2023-03-11T04:58:20;95889.53;;;5.89;100.00
55289;BME280;41154;45.394;5.734;2023-03-11T05:00:46;95902.69;;;5.96;100.00
55289;BME280;41154;45.394;5.734;2023-03-11T05:03:13;95906.88;;;5.91;100.00
55289;BME280;41154;45.394;5.734;2023-03-11T05:05:39;95901.16;;;6.00;100.00
55289;BME280;41154;45.394;5.734;2023-03-11T05:08:06;95905.38;;;6.18;100.00
55289;BME280;41154;45.394;5.734;2023-03-11T05:10:32;95911.31;;;6.03;100.00
55289;BME280;41154;45.394;5.734;2023-03-11T05:13:01;95908.56;;;6.20;100.00
55289;BME280;41154;45.394;5.734;2023-03-11T05:15:31;95915.22;;;6.17;100.00
55289;BME280;41154;45.394;5.734;2023-03-11T05:18:00;95911.69;;;6.11;100.00
55289;BME280;41154;45.394;5.734;2023-03-11T05:20:26;95895.75;;;6.17;100.00
55289;BME280;41154;45.394;5.734;2023-03-11T05:22:51;95881.72;;;5.99;100.00
55289;BME280;41154;45.394;5.734;2023-03-11T05:25:17;95849.66;;;6.11;100.00
55289;BME280;41154;45.394;5.734;2023-03-11T05:27:43;95845.50;;;6.20;100.00
55289;BME280;41154;45.394;5.734;2023-03-11T05:30:10;95828.34;;;6.11;100.00
55289;BME280;41154;45.394;5.734;2023-03-11T05:32:39;95836.44;;;6.21;100.00
55289;BME280;41154;45.394;5.734;2023-03-11T05:35:06;95834.84;;;6.20;100.00
55289;BME280;41154;45.394;5.734;2023-03-11T05:37:32;95815.03;;;6.11;100.00
55289;BME280;41154;45.394;5.734;2023-03-11T05:40:01;95843.47;;;6.05;100.00
55289;BME280;41154;45.394;5.734;2023-03-11T05:42:33;95867.28;;;6.44;100.00
55289;BME280;41154;45.394;5.734;2023-03-11T05:45:00;95858.75;;;6.42;100.00
55289;BME280;41154;45.394;5.734;2023-03-11T05:47:26;95863.38;;;6.25;100.00
55289;BME280;41154;45.394;5.734;2023-03-11T05:49:53;95889.13;;;6.19;100.00
55289;BME280;41154;45.394;5.734;2023-03-11T05:52:20;95882.72;;;6.42;100.00
55289;BME280;41154;45.394;5.734;2023-03-11T05:54:52;95876.28;;;6.65;100.00
55289;BME280;41154;45.394;5.734;2023-03-11T05:57:22;95883.63;;;6.53;100.00
55289;BME280;41154;45.394;5.734;2023-03-11T05:59:47;95882.41;;;6.66;100.00
55289;BME280;41154;45.394;5.734;2023-03-11T06:02:14;95893.63;;;6.41;100.00
55289;BME280;41154;45.394;5.734;2023-03-11T06:04:40;95887.16;;;6.32;100.00
55289;BME280;41154;45.394;5.734;2023-03-11T06:07:07;95877.84;;;6.34;100.00
55289;BME280;41154;45.394;5.734;2023-03-11T06:09:37;95871.91;;;6.54;100.00
55289;BME280;41154;45.394;5.734;2023-03-11T06:12:06;95880.97;;;6.53;100.00
55289;BME280;41154;45.394;5.734;2023-03-11T06:14:45;95885.47;;;6.53;100.00
55289;BME280;41154;45.394;5.734;2023-03-11T06:17:11;95863.81;;;6.71;100.00
55289;BME280;41154;45.394;5.734;2023-03-11T06:19:37;95861.84;;;6.61;100.00
55289;BME280;41154;45.394;5.734;2023-03-11T06:22:03;95875.31;;;6.50;100.00
55289;BME280;41154;45.394;5.734;2023-03-11T06:24:29;95872.22;;;6.58;100.00
55289;BME280;41154;45.394;5.734;2023-03-11T06:26:55;95880.06;;;6.42;100.00
55289;BME280;41154;45.394;5.734;2023-03-11T06:29:24;95881.66;;;6.43;100.00
55289;BME280;41154;45.394;5.734;2023-03-11T06:31:52;95900.88;;;6.45;100.00
55289;BME280;41154;45.394;5.734;2023-03-11T06:34:18;95894.03;;;6.82;100.00
55289;BME280;41154;45.394;5.734;2023-03-11T06:36:44;95890.53;;;6.76;100.00
55289;BME280;41154;45.394;5.734;2023-03-11T06:39:14;95894.63;;;6.62;100.00
55289;BME280;41154;45.394;5.734;2023-03-11T06:41:41;95913.84;;;6.64;100.00
55289;BME280;41154;45.394;5.734;2023-03-11T06:44:09;95909.09;;;6.71;100.00
55289;BME280;41154;45.394;5.734;2023-03-11T06:46:36;95909.63;;;6.68;100.00
55289;BME280;41154;45.394;5.734;2023-03-11T06:49:02;95925.09;;;6.71;100.00
55289;BME280;41154;45.394;5.734;2023-03-11T06:51:29;95924.97;;;7.15;100.00
55289;BME280;41154;45.394;5.734;2023-03-11T06:53:55;95918.88;;;6.88;100.00
55289;BME280;41154;45.394;5.734;2023-03-11T06:56:23;95922.47;;;7.04;100.00
55289;BME280;41154;45.394;5.734;2023-03-11T06:58:59;95926.91;;;6.93;100.00
55289;BME280;41154;45.394;5.734;2023-03-11T07:01:29;95936.09;;;7.07;100.00
55289;BME280;41154;45.394;5.734;2023-03-11T07:03:56;95940.63;;;7.07;100.00
55289;BME280;41154;45.394;5.734;2023-03-11T07:06:24;95933.63;;;7.33;100.00
55289;BME280;41154;45.394;5.734;2023-03-11T07:08:56;95935.13;;;7.18;100.00
55289;BME280;41154;45.394;5.734;2023-03-11T07:11:25;95948.38;;;7.08;100.00
55289;BME280;41154;45.394;5.734;2023-03-11T07:13:55;95943.16;;;7.24;100.00
55289;BME280;41154;45.394;5.734;2023-03-11T07:16:23;95962.09;;;7.22;100.00
55289;BME280;41154;45.394;5.734;2023-03-11T07:18:56;95976.69;;;7.14;100.00
55289;BME280;41154;45.394;5.734;2023-03-11T07:21:23;95987.72;;;6.96;100.00
55289;BME280;41154;45.394;5.734;2023-03-11T07:23:54;95997.91;;;7.04;100.00
55289;BME280;41154;45.394;5.734;2023-03-11T07:26:21;95984.78;;;7.25;100.00
55289;BME280;41154;45.394;5.734;2023-03-11T07:28:47;95993.59;;;7.25;100.00
55289;BME280;41154;45.394;5.734;2023-03-11T07:31:19;95993.88;;;7.29;100.00
55289;BME280;41154;45.394;5.734;2023-03-11T07:33:44;96003.56;;;7.08;100.00
55289;BME280;41154;45.394;5.734;2023-03-11T07:36:15;96001.34;;;7.27;100.00
55289;BME280;41154;45.394;5.734;2023-03-11T07:38:42;96013.28;;;7.19;100.00
55289;BME280;41154;45.394;5.734;2023-03-11T07:41:12;96015.81;;;7.36;100.00
55289;BME280;41154;45.394;5.734;2023-03-11T07:43:39;96024.47;;;7.48;100.00
55289;BME280;41154;45.394;5.734;2023-03-11T07:46:08;96023.56;;;7.37;100.00
55289;BME280;41154;45.394;5.734;2023-03-11T07:48:35;96032.59;;;7.64;100.00
55289;BME280;41154;45.394;5.734;2023-03-11T07:51:13;96020.94;;;7.75;100.00
55289;BME280;41154;45.394;5.734;2023-03-11T07:53:40;96026.69;;;7.62;100.00
55289;BME280;41154;45.394;5.734;2023-03-11T07:56:07;96026.19;;;7.65;100.00
55289;BME280;41154;45.394;5.734;2023-03-11T07:58:33;96032.13;;;7.72;100.00
55289;BME280;41154;45.394;5.734;2023-03-11T08:01:06;96040.72;;;7.79;100.00
55289;BME280;41154;45.394;5.734;2023-03-11T08:03:36;96041.81;;;7.83;100.00
55289;BME280;41154;45.394;5.734;2023-03-11T08:06:02;96054.53;;;7.71;100.00
55289;BME280;41154;45.394;5.734;2023-03-11T08:08:29;96050.53;;;7.68;100.00
55289;BME280;41154;45.394;5.734;2023-03-11T08:10:54;96051.97;;;7.86;100.00
55289;BME280;41154;45.394;5.734;2023-03-11T08:13:20;96056.06;;;7.99;100.00
55289;BME280;41154;45.394;5.734;2023-03-11T08:15:46;96067.09;;;8.08;100.00
55289;BME280;41154;45.394;5.734;2023-03-11T08:18:11;96083.66;;;8.10;100.00
55289;BME280;41154;45.394;5.734;2023-03-11T08:20:37;96092.81;;;8.19;100.00
55289;BME280;41154;45.394;5.734;2023-03-11T08:23:04;96096.56;;;8.18;100.00
55289;BME280;41154;45.394;5.734;2023-03-11T08:25:30;96106.66;;;8.11;100.00
55289;BME280;41154;45.394;5.734;2023-03-11T08:27:58;96104.56;;;8.18;100.00
55289;BME280;41154;45.394;5.734;2023-03-11T08:30:24;96108.63;;;8.26;100.00
55289;BME280;41154;45.394;5.734;2023-03-11T08:32:49;96110.75;;;8.24;100.00
55289;BME280;41154;45.394;5.734;2023-03-11T08:35:15;96120.47;;;8.40;100.00
55289;BME280;41154;45.394;5.734;2023-03-11T08:37:41;96125.81;;;8.40;100.00
55289;BME280;41154;45.394;5.734;2023-03-11T08:40:13;96111.72;;;8.45;100.00
55289;BME280;41154;45.394;5.734;2023-03-11T08:42:39;96115.13;;;8.40;100.00
55289;BME280;41154;45.394;5.734;2023-03-11T08:45:05;96120.47;;;8.40;100.00
55289;BME280;41154;45.394;5.734;2023-03-11T08:47:36;96132.72;;;8.36;100.00
55289;BME280;41154;45.394;5.734;2023-03-11T08:50:11;96132.38;;;8.60;100.00
55289;BME280;41154;45.394;5.734;2023-03-11T08:52:37;96136.06;;;8.54;100.00
55289;BME280;41154;45.394;5.734;2023-03-11T08:55:04;96136.31;;;8.52;100.00
55289;BME280;41154;45.394;5.734;2023-03-11T08:57:30;96131.81;;;8.53;100.00
55289;BME280;41154;45.394;5.734;2023-03-11T08:59:57;96118.78;;;8.67;100.00
55289;BME280;41154;45.394;5.734;2023-03-11T09:02:26;96128.28;;;8.90;100.00
55289;BME280;41154;45.394;5.734;2023-03-11T09:04:52;96127.78;;;9.03;100.00
55289;BME280;41154;45.394;5.734;2023-03-11T09:07:18;96124.16;;;9.35;100.00
55289;BME280;41154;45.394;5.734;2023-03-11T09:09:44;96136.38;;;9.15;100.00
55289;BME280;41154;45.394;5.734;2023-03-11T09:12:09;96135.50;;;8.94;100.00
55289;BME280;41154;45.394;5.734;2023-03-11T09:14:41;96131.28;;;9.09;100.00
55289;BME280;41154;45.394;5.734;2023-03-11T09:17:08;96124.25;;;8.97;100.00
55289;BME280;41154;45.394;5.734;2023-03-11T09:19:35;96131.88;;;9.26;100.00
55289;BME280;41154;45.394;5.734;2023-03-11T09:22:01;96128.59;;;9.09;100.00
55289;BME280;41154;45.394;5.734;2023-03-11T09:24:29;96124.31;;;9.13;100.00
55289;BME280;41154;45.394;5.734;2023-03-11T09:26:57;96117.72;;;9.31;100.00
55289;BME280;41154;45.394;5.734;2023-03-11T09:29:22;96121.22;;;9.37;100.00
55289;BME280;41154;45.394;5.734;2023-03-11T09:31:48;96135.66;;;9.30;100.00
55289;BME280;41154;45.394;5.734;2023-03-11T09:34:14;96137.69;;;9.08;100.00
55289;BME280;41154;45.394;5.734;2023-03-11T09:36:40;96138.81;;;9.22;100.00
55289;BME280;41154;45.394;5.734;2023-03-11T09:39:07;96147.78;;;9.74;100.00
55289;BME280;41154;45.394;5.734;2023-03-11T09:41:55;96142.97;;;10.02;100.00
55289;BME280;41154;45.394;5.734;2023-03-11T09:55:52;96155.31;;;10.08;100.00
55289;BME280;41154;45.394;5.734;2023-03-11T09:58:40;96153.44;;;9.88;100.00
55289;BME280;41154;45.394;5.734;2023-03-11T10:01:28;96153.72;;;10.22;100.00
55289;BME280;41154;45.394;5.734;2023-03-11T10:03:58;96163.34;;;9.93;100.00
55289;BME280;41154;45.394;5.734;2023-03-11T10:06:30;96166.81;;;9.83;100.00
55289;BME280;41154;45.394;5.734;2023-03-11T10:14:34;96168.16;;;10.83;100.00
55289;BME280;41154;45.394;5.734;2023-03-11T10:23:00;96163.88;;;10.82;100.00
55289;BME280;41154;45.394;5.734;2023-03-11T10:25:31;96172.41;;;11.05;100.00
55289;BME280;41154;45.394;5.734;2023-03-11T10:28:12;96170.25;;;11.02;100.00
55289;BME280;41154;45.394;5.734;2023-03-11T10:30:52;96166.81;;;10.91;100.00
55289;BME280;41154;45.394;5.734;2023-03-11T10:33:23;96176.97;;;10.89;100.00
55289;BME280;41154;45.394;5.734;2023-03-11T10:35:54;96174.91;;;10.24;100.00
55289;BME280;41154;45.394;5.734;2023-03-11T10:38:34;96176.75;;;10.23;100.00
55289;BME280;41154;45.394;5.734;2023-03-11T10:41:06;96179.19;;;10.30;100.00
55289;BME280;41154;45.394;5.734;2023-03-11T10:43:40;96174.81;;;11.01;100.00
55289;BME280;41154;45.394;5.734;2023-03-11T10:46:22;96183.34;;;11.24;100.00
55289;BME280;41154;45.394;5.734;2023-03-11T10:48:48;96192.50;;;11.07;100.00
55289;BME280;41154;45.394;5.734;2023-03-11T10:53:56;96194.69;;;10.95;100.00
55289;BME280;41154;45.394;5.734;2023-03-11T10:56:32;96182.03;;;11.16;100.00
55289;BME280;41154;45.394;5.734;2023-03-11T10:58:59;96189.28;;;11.10;100.00
55289;BME280;41154;45.394;5.734;2023-03-11T11:01:27;96195.63;;;11.35;100.00
55289;BME280;41154;45.394;5.734;2023-03-11T11:03:55;96194.03;;;11.39;100.00
55289;BME280;41154;45.394;5.734;2023-03-11T11:06:31;96192.53;;;11.62;100.00
55289;BME280;41154;45.394;5.734;2023-03-11T11:09:18;96192.47;;;11.78;100.00
55289;BME280;41154;45.394;5.734;2023-03-11T11:14:49;96200.81;;;11.76;100.00
55289;BME280;41154;45.394;5.734;2023-03-11T11:17:33;96206.72;;;11.73;100.00
55289;BME280;41154;45.394;5.734;2023-03-11T11:20:02;96198.88;;;11.92;100.00
55289;BME280;41154;45.394;5.734;2023-03-11T11:22:38;96200.75;;;11.86;100.00
55289;BME280;41154;45.394;5.734;2023-03-11T11:25:33;96203.56;;;12.16;100.00
55289;BME280;41154;45.394;5.734;2023-03-11T11:28:07;96207.72;;;12.32;100.00
55289;BME280;41154;45.394;5.734;2023-03-11T11:35:55;96191.34;;;11.89;100.00
55289;BME280;41154;45.394;5.734;2023-03-11T11:38:22;96195.56;;;12.40;100.00
55289;BME280;41154;45.394;5.734;2023-03-11T11:40:49;96184.94;;;12.59;100.00
55289;BME280;41154;45.394;5.734;2023-03-11T11:43:19;96201.69;;;12.51;100.00
55289;BME280;41154;45.394;5.734;2023-03-11T11:45:54;96224.78;;;11.67;100.00
55289;BME280;41154;45.394;5.734;2023-03-11T11:48:28;96219.00;;;11.29;100.00
55289;BME280;41154;45.394;5.734;2023-03-11T11:50:59;96216.75;;;11.57;100.00
55289;BME280;41154;45.394;5.734;2023-03-11T11:53:48;96216.38;;;11.84;100.00
55289;BME280;41154;45.394;5.734;2023-03-11T11:56:17;96232.63;;;11.54;100.00
55289;BME280;41154;45.394;5.734;2023-03-11T11:58:43;96238.09;;;11.23;100.00
55289;BME280;41154;45.394;5.734;2023-03-11T12:03:56;96226.19;;;11.55;100.00
55289;BME280;41154;45.394;5.734;2023-03-11T12:07:03;96210.53;;;11.72;100.00
55289;BME280;41154;45.394;5.734;2023-03-11T12:12:28;96221.66;;;12.05;100.00
55289;BME280;41154;45.394;5.734;2023-03-11T12:15:25;96224.66;;;11.33;100.00
55289;BME280;41154;45.394;5.734;2023-03-11T12:17:59;96227.66;;;11.16;100.00
55289;BME280;41154;45.394;5.734;2023-03-11T12:20:47;96230.78;;;11.44;100.00
55289;BME280;41154;45.394;5.734;2023-03-11T12:23:36;96221.38;;;11.51;100.00
55289;BME280;41154;45.394;5.734;2023-03-11T12:26:20;96216.00;;;11.51;100.00
55289;BME280;41154;45.394;5.734;2023-03-11T12:28:53;96222.56;;;11.80;100.00
55289;BME280;41154;45.394;5.734;2023-03-11T12:31:23;96208.41;;;12.14;100.00
55289;BME280;41154;45.394;5.734;2023-03-11T12:33:55;96203.56;;;12.16;100.00
55289;BME280;41154;45.394;5.734;2023-03-11T12:36:30;96213.75;;;11.69;100.00
55289;BME280;41154;45.394;5.734;2023-03-11T12:38:57;96211.72;;;12.00;100.00
55289;BME280;41154;45.394;5.734;2023-03-11T12:41:36;96200.84;;;11.71;100.00
55289;BME280;41154;45.394;5.734;2023-03-11T12:44:23;96218.09;;;11.60;100.00
55289;BME280;41154;45.394;5.734;2023-03-11T12:49:35;96204.50;;;11.91;100.00
55289;BME280;41154;45.394;5.734;2023-03-11T12:54:32;96207.16;;;12.01;100.00
55289;BME280;41154;45.394;5.734;2023-03-11T12:57:00;96213.03;;;12.08;100.00
55289;BME280;41154;45.394;5.734;2023-03-11T13:02:31;96199.25;;;11.65;100.00
55289;BME280;41154;45.394;5.734;2023-03-11T13:13:00;96205.09;;;12.27;100.00
55289;BME280;41154;45.394;5.734;2023-03-11T13:15:34;96228.97;;;12.34;100.00
55289;BME280;41154;45.394;5.734;2023-03-11T13:18:22;96213.91;;;11.98;100.00
55289;BME280;41154;45.394;5.734;2023-03-11T13:21:02;96222.66;;;11.59;100.00
55289;BME280;41154;45.394;5.734;2023-03-11T13:23:32;96228.66;;;11.41;100.00
55289;BME280;41154;45.394;5.734;2023-03-11T13:26:25;96224.59;;;11.48;100.00
55289;BME280;41154;45.394;5.734;2023-03-11T13:29:21;96233.69;;;11.58;100.00
55289;BME280;41154;45.394;5.734;2023-03-11T13:32:00;96224.44;;;11.84;100.00
55289;BME280;41154;45.394;5.734;2023-03-11T13:40:37;96238.97;;;11.73;100.00
55289;BME280;41154;45.394;5.734;2023-03-11T13:43:04;96248.56;;;12.00;100.00
55289;BME280;41154;45.394;5.734;2023-03-11T13:45:35;96252.50;;;12.13;100.00
55289;BME280;41154;45.394;5.734;2023-03-11T13:48:16;96247.78;;;11.89;100.00
55289;BME280;41154;45.394;5.734;2023-03-11T13:51:05;96252.69;;;11.72;100.00
55289;BME280;41154;45.394;5.734;2023-03-11T13:53:46;96262.09;;;11.74;100.00
55289;BME280;41154;45.394;5.734;2023-03-11T13:56:23;96253.94;;;12.00;100.00
55289;BME280;41154;45.394;5.734;2023-03-11T13:58:51;96250.09;;;12.11;100.00
55289;BME280;41154;45.394;5.734;2023-03-11T14:01:17;96254.97;;;12.09;100.00
55289;BME280;41154;45.394;5.734;2023-03-11T14:03:46;96253.16;;;12.34;100.00
55289;BME280;41154;45.394;5.734;2023-03-11T14:06:15;96249.03;;;12.52;100.00
55289;BME280;41154;45.394;5.734;2023-03-11T14:08:42;96260.91;;;12.80;100.00
55289;BME280;41154;45.394;5.734;2023-03-11T14:13:41;96259.28;;;12.50;100.00
55289;BME280;41154;45.394;5.734;2023-03-11T14:16:12;96268.84;;;12.27;100.00
55289;BME280;41154;45.394;5.734;2023-03-11T14:18:44;96261.13;;;12.54;100.00
55289;BME280;41154;45.394;5.734;2023-03-11T14:21:21;96257.13;;;12.47;100.00
55289;BME280;41154;45.394;5.734;2023-03-11T14:23:48;96243.47;;;12.38;100.00